Time;durP1;ratioP1;P1;durP2;ratioP2;P2;SDS_P1;SDS_P2;PMS_P1;PMS_P2;Temp;Humidity;BMP_temperature;BMP_pressure;BME280_temperature;BME280_humidity;BME280_pressure;Samples;Min_cycle;Max_cycle;Signal;HPM_P1;HPM_P2
2024/03/23 00:00:49;;;;;;;5.40;3.35;;;13.90;99.90;;;;;;5023924;28;20033;-79
2024/03/23 00:03:16;;;;;;;9.93;3.88;;;13.90;99.90;;;;;;5011624;28;20037;-79
2024/03/23 00:05:43;;;;;;;7.22;3.40;;;13.90;99.90;;;;;;5011496;28;20023;-79
2024/03/23 00:08:09;;;;;;;7.15;3.40;;;13.90;99.90;;;;;;5029093;28;20022;-79
2024/03/23 00:10:36;;;;;;;5.13;3.60;;;13.90;99.90;;;;;;5025189;28;20483;-79
2024/03/23 00:13:04;;;;;;;5.53;3.67;;;13.90;99.90;;;;;;5027390;28;20022;-79
2024/03/23 00:15:34;;;;;;;5.70;3.85;;;13.90;99.90;;;;;;5026743;28;20029;-79
2024/03/23 00:18:01;;;;;;;6.20;3.33;;;13.90;99.90;;;;;;5015134;28;20025;-80
2024/03/23 00:20:27;;;;;;;6.97;3.20;;;13.90;99.90;;;;;;5030429;28;20030;-79
2024/03/23 00:22:54;;;;;;;4.45;3.03;;;13.90;99.90;;;;;;5011880;28;20037;-80
2024/03/23 00:25:20;;;;;;;6.80;3.38;;;13.90;99.90;;;;;;5030437;28;20030;-79
2024/03/23 00:27:47;;;;;;;6.00;3.25;;;13.90;99.90;;;;;;5029514;28;20039;-79
2024/03/23 00:30:13;;;;;;;3.95;2.90;;;13.90;99.90;;;;;;5014521;28;20041;-78
2024/03/23 00:32:40;;;;;;;7.65;2.97;;;13.90;99.90;;;;;;5012590;28;20033;-79
2024/03/23 00:35:06;;;;;;;4.90;3.33;;;13.90;99.90;;;;;;5029813;28;20518;-79
2024/03/23 00:37:33;;;;;;;9.50;2.80;;;13.90;99.90;;;;;;5012070;28;20030;-79
2024/03/23 00:39:59;;;;;;;5.45;3.15;;;13.90;99.90;;;;;;5011817;28;20483;-79
2024/03/23 00:42:26;;;;;;;11.00;2.83;;;13.90;99.90;;;;;;5011401;28;20515;-79
2024/03/23 00:44:52;;;;;;;5.38;2.83;;;13.80;99.90;;;;;;5014850;28;20476;-79
2024/03/23 00:47:19;;;;;;;7.97;3.13;;;13.80;99.90;;;;;;5010499;28;20032;-79
2024/03/23 00:49:45;;;;;;;6.25;3.22;;;13.80;99.90;;;;;;5012385;28;20021;-80
2024/03/23 00:52:12;;;;;;;3.92;2.83;;;13.80;99.90;;;;;;5014737;28;20634;-79
2024/03/23 00:54:37;;;;;;;7.53;3.13;;;13.80;99.90;;;;;;5032486;28;20025;-79
2024/03/23 00:57:03;;;;;;;3.85;2.95;;;13.80;99.90;;;;;;5010457;28;20498;-79
2024/03/23 00:59:29;;;;;;;5.03;2.67;;;13.90;99.90;;;;;;5012269;28;20033;-80
2024/03/23 01:01:54;;;;;;;6.03;3.72;;;13.80;99.90;;;;;;5009835;28;20033;-80
2024/03/23 01:04:20;;;;;;;4.53;3.00;;;13.80;99.90;;;;;;5030095;28;20036;-81
2024/03/23 01:06:46;;;;;;;6.43;2.50;;;13.80;99.90;;;;;;5010723;28;20034;-79
2024/03/23 01:09:11;;;;;;;5.18;2.78;;;13.80;99.90;;;;;;5031382;28;20092;-79
2024/03/23 01:11:37;;;;;;;7.75;2.88;;;13.80;99.90;;;;;;5009990;28;20550;-79
2024/03/23 01:14:03;;;;;;;6.00;2.95;;;13.80;99.90;;;;;;5025648;28;20017;-80
2024/03/23 01:16:28;;;;;;;5.80;2.85;;;13.80;99.90;;;;;;5031064;28;20083;-79
2024/03/23 01:18:54;;;;;;;6.10;3.00;;;13.80;99.90;;;;;;5029016;28;20104;-80
2024/03/23 01:21:20;;;;;;;5.15;3.00;;;13.80;99.90;;;;;;5028823;28;20021;-80
2024/03/23 01:23:45;;;;;;;7.82;2.88;;;13.80;99.90;;;;;;5012364;28;20371;-79
2024/03/23 01:26:11;;;;;;;5.53;2.75;;;13.80;99.90;;;;;;5031482;28;20352;-79
2024/03/23 01:28:36;;;;;;;7.20;2.83;;;13.80;99.90;;;;;;5026519;28;20463;-79
2024/03/23 01:31:02;;;;;;;8.23;3.08;;;13.80;99.90;;;;;;5010678;28;20017;-81
2024/03/23 01:33:28;;;;;;;3.50;2.50;;;13.80;99.90;;;;;;5014001;28;20022;-79
2024/03/23 01:35:53;;;;;;;7.68;3.28;;;13.80;99.90;;;;;;5029324;28;20053;-80
2024/03/23 01:38:19;;;;;;;6.63;2.90;;;13.80;99.90;;;;;;5013851;28;20116;-80
2024/03/23 01:40:44;;;;;;;5.25;2.47;;;13.70;99.90;;;;;;5031660;28;20033;-79
2024/03/23 01:43:10;;;;;;;4.95;2.67;;;13.70;99.90;;;;;;5029687;28;20491;-80
2024/03/23 01:45:37;;;;;;;3.50;2.95;;;13.70;99.90;;;;;;5028887;28;20514;-79
2024/03/23 01:48:03;;;;;;;6.65;2.58;;;13.80;99.90;;;;;;5031299;28;20082;-80
2024/03/23 01:50:33;;;;;;;3.53;2.40;;;13.70;99.90;;;;;;5008460;28;20392;-79
2024/03/23 01:52:59;;;;;;;8.07;2.58;;;13.80;99.90;;;;;;5028589;28;20387;-79
2024/03/23 01:55:25;;;;;;;5.25;3.15;;;13.80;99.90;;;;;;5033369;28;20026;-79
2024/03/23 01:57:51;;;;;;;5.05;2.65;;;13.80;99.90;;;;;;5031202;28;20395;-79
2024/03/23 02:00:17;;;;;;;4.40;3.13;;;13.70;99.90;;;;;;5030235;28;20033;-80
2024/03/23 02:02:44;;;;;;;5.65;2.45;;;13.70;99.90;;;;;;5012381;28;20411;-78
2024/03/23 02:05:10;;;;;;;10.27;3.08;;;13.70;99.90;;;;;;5030983;28;20105;-79
2024/03/23 02:07:37;;;;;;;5.15;2.58;;;13.70;99.90;;;;;;5029852;28;20483;-80
2024/03/23 02:10:03;;;;;;;3.58;2.40;;;13.70;99.90;;;;;;5030159;28;20450;-79
2024/03/23 02:12:28;;;;;;;4.25;2.40;;;13.70;99.90;;;;;;5013049;28;20018;-79
2024/03/23 02:14:54;;;;;;;4.38;2.78;;;13.70;99.90;;;;;;5027548;28;20468;-79
2024/03/23 02:17:19;;;;;;;6.22;3.20;;;13.60;99.90;;;;;;5008845;28;20560;-78
2024/03/23 02:19:46;;;;;;;4.93;2.42;;;13.60;99.90;;;;;;5013150;28;20519;-79
2024/03/23 02:22:12;;;;;;;4.75;2.85;;;13.60;99.90;;;;;;5010670;28;20021;-79
2024/03/23 02:24:37;;;;;;;3.85;2.47;;;13.60;99.90;;;;;;5010048;28;20017;-79
2024/03/23 02:27:03;;;;;;;4.80;2.90;;;13.60;99.90;;;;;;5030207;28;20025;-79
2024/03/23 02:29:29;;;;;;;4.90;2.60;;;13.60;99.90;;;;;;5012733;28;20034;-79
2024/03/23 02:31:54;;;;;;;4.20;2.53;;;13.60;99.90;;;;;;5026720;28;20022;-79
2024/03/23 02:34:20;;;;;;;8.85;3.10;;;13.60;99.90;;;;;;5028032;28;20029;-78
2024/03/23 02:36:45;;;;;;;3.88;2.58;;;13.60;99.90;;;;;;5012479;28;20025;-79
2024/03/23 02:39:11;;;;;;;5.43;2.90;;;13.60;99.90;;;;;;5023358;28;20025;-79
2024/03/23 02:41:37;;;;;;;4.95;2.63;;;13.60;99.90;;;;;;5011555;28;20030;-79
2024/03/23 02:44:02;;;;;;;4.47;2.20;;;13.60;99.90;;;;;;5030227;28;20408;-79
2024/03/23 02:46:28;;;;;;;6.65;3.20;;;13.60;99.90;;;;;;5028720;28;20075;-80
2024/03/23 02:48:53;;;;;;;5.20;2.42;;;13.60;99.90;;;;;;5028640;28;20025;-79
2024/03/23 02:51:19;;;;;;;7.57;3.00;;;13.60;99.90;;;;;;5029892;28;20029;-79
2024/03/23 02:53:44;;;;;;;4.32;2.63;;;13.60;99.90;;;;;;5011988;28;20103;-81
2024/03/23 02:56:15;;;;;;;7.50;2.90;;;13.60;99.90;;;;;;5011453;28;20085;-79
2024/03/23 02:58:41;;;;;;;5.00;3.22;;;13.60;99.90;;;;;;5011782;28;20041;-79
2024/03/23 03:01:06;;;;;;;7.35;3.17;;;13.60;99.90;;;;;;5028176;28;20072;-78
2024/03/23 03:03:32;;;;;;;7.85;3.00;;;13.60;99.90;;;;;;5028946;28;20085;-79
2024/03/23 03:05:58;;;;;;;4.93;2.60;;;13.60;99.90;;;;;;5008649;28;20657;-79
2024/03/23 03:08:23;;;;;;;7.03;2.97;;;13.60;99.90;;;;;;5030156;28;20026;-79
2024/03/23 03:10:49;;;;;;;4.82;2.50;;;13.60;99.90;;;;;;5009685;28;20113;-79
2024/03/23 03:13:15;;;;;;;4.43;2.60;;;13.60;99.90;;;;;;5012071;28;20486;-80
2024/03/23 03:15:43;;;;;;;6.18;2.72;;;13.60;99.90;;;;;;5029609;28;20033;-79
2024/03/23 03:18:08;;;;;;;5.43;2.90;;;13.60;99.90;;;;;;5027964;28;20037;-80
2024/03/23 03:20:34;;;;;;;7.47;3.05;;;13.60;99.90;;;;;;5011668;28;20032;-79
2024/03/23 03:23:00;;;;;;;6.15;2.50;;;13.60;99.90;;;;;;5011988;28;20021;-79
2024/03/23 03:25:25;;;;;;;4.63;2.95;;;13.60;99.90;;;;;;5012220;28;20032;-79
2024/03/23 03:27:51;;;;;;;4.00;2.60;;;13.60;99.90;;;;;;5028660;28;20156;-79
2024/03/23 03:30:16;;;;;;;7.55;2.58;;;13.60;99.90;;;;;;5010992;28;20513;-78
2024/03/23 03:32:43;;;;;;;4.57;2.88;;;13.60;99.90;;;;;;5010987;28;20013;-79
2024/03/23 03:35:08;;;;;;;7.53;2.67;;;13.60;99.90;;;;;;5025322;28;20014;-79
2024/03/23 03:37:34;;;;;;;3.70;2.58;;;13.60;99.90;;;;;;5012038;28;20037;-80
2024/03/23 03:39:59;;;;;;;5.68;2.78;;;13.60;99.90;;;;;;5011597;28;20018;-80
2024/03/23 03:42:25;;;;;;;3.97;2.50;;;13.60;99.90;;;;;;5006918;28;20030;-79
2024/03/23 03:44:51;;;;;;;6.40;2.70;;;13.60;99.90;;;;;;5004869;28;20056;-79
2024/03/23 03:47:17;;;;;;;5.55;3.10;;;13.60;99.90;;;;;;5029476;28;20021;-79
2024/03/23 03:49:42;;;;;;;3.85;2.35;;;13.60;99.90;;;;;;5029133;28;20020;-79
2024/03/23 03:52:08;;;;;;;8.13;3.33;;;13.60;99.90;;;;;;5009994;28;20391;-79
2024/03/23 03:54:33;;;;;;;4.00;2.78;;;13.60;99.90;;;;;;5016132;28;20475;-79
2024/03/23 03:56:59;;;;;;;6.15;2.83;;;13.60;99.90;;;;;;5032324;28;21196;-79
2024/03/23 03:59:24;;;;;;;5.38;3.10;;;13.60;99.90;;;;;;5032803;28;20710;-78
2024/03/23 04:01:50;;;;;;;7.78;2.85;;;13.60;99.90;;;;;;5033455;28;20479;-79
2024/03/23 04:04:16;;;;;;;6.05;2.75;;;13.60;99.90;;;;;;5014064;28;20053;-79
2024/03/23 04:06:43;;;;;;;3.58;2.50;;;13.60;99.90;;;;;;5032696;28;20037;-79
2024/03/23 04:09:08;;;;;;;3.38;2.40;;;13.60;99.90;;;;;;5015696;28;20021;-79
2024/03/23 04:11:34;;;;;;;4.85;2.63;;;13.60;99.90;;;;;;5015754;28;20032;-79
2024/03/23 04:13:59;;;;;;;11.85;3.08;;;13.60;99.90;;;;;;5030386;28;20094;-79
2024/03/23 04:16:33;;;;;;;4.03;3.15;;;13.60;99.90;;;;;;5031378;28;20482;-79
2024/03/23 04:18:59;;;;;;;4.40;3.10;;;13.60;99.90;;;;;;5030286;28;20017;-79
2024/03/23 04:21:24;;;;;;;5.20;2.70;;;13.60;99.90;;;;;;5030764;28;20032;-79
2024/03/23 04:23:50;;;;;;;5.68;3.47;;;13.60;99.90;;;;;;5031204;28;20025;-79
2024/03/23 04:26:16;;;;;;;4.28;3.05;;;13.50;99.90;;;;;;5031329;28;20551;-80
2024/03/23 04:28:42;;;;;;;4.43;3.10;;;13.50;99.90;;;;;;5008174;28;20064;-79
2024/03/23 04:31:09;;;;;;;4.25;2.97;;;13.50;99.90;;;;;;5029152;28;20009;-79
2024/03/23 04:33:34;;;;;;;6.15;3.38;;;13.50;99.90;;;;;;5015120;28;20022;-79
2024/03/23 04:36:00;;;;;;;8.80;3.15;;;13.50;99.90;;;;;;5031571;28;20068;-79
2024/03/23 04:38:25;;;;;;;5.22;2.85;;;13.50;99.90;;;;;;5032677;28;20104;-79
2024/03/23 04:40:58;;;;;;;5.30;3.08;;;13.50;99.90;;;;;;5032789;28;20017;-79
2024/03/23 04:43:23;;;;;;;4.53;2.97;;;13.50;99.90;;;;;;5010691;28;20050;-79
2024/03/23 04:45:49;;;;;;;5.65;2.78;;;13.50;99.90;;;;;;5014614;28;20014;-79
2024/03/23 04:48:15;;;;;;;3.75;2.60;;;13.50;99.90;;;;;;5032644;28;20099;-80
2024/03/23 04:50:41;;;;;;;8.63;3.10;;;13.50;99.90;;;;;;5016493;28;20029;-79
2024/03/23 04:53:07;;;;;;;5.97;3.00;;;13.50;99.90;;;;;;5013777;28;20471;-79
2024/03/23 04:55:32;;;;;;;5.80;3.10;;;13.50;99.90;;;;;;5014901;28;20117;-79
2024/03/23 04:57:58;;;;;;;4.93;2.85;;;13.50;99.90;;;;;;5012986;28;20113;-80
2024/03/23 05:00:24;;;;;;;8.23;3.42;;;13.50;99.90;;;;;;5008611;28;20107;-79
2024/03/23 05:02:50;;;;;;;8.00;3.17;;;13.50;99.90;;;;;;5028140;28;20025;-79
2024/03/23 05:05:16;;;;;;;4.30;2.92;;;13.40;99.90;;;;;;5032442;28;20041;-79
2024/03/23 05:07:41;;;;;;;6.30;2.72;;;13.40;99.90;;;;;;5030790;28;20021;-79
2024/03/23 05:10:10;;;;;;;4.70;2.80;;;13.50;99.90;;;;;;5014514;28;20064;-79
2024/03/23 05:12:37;;;;;;;7.57;3.08;;;13.40;99.90;;;;;;5031989;28;20026;-79
2024/03/23 05:15:04;;;;;;;4.05;3.15;;;13.50;99.90;;;;;;5030903;28;20014;-79
2024/03/23 05:17:30;;;;;;;11.43;3.80;;;13.40;99.90;;;;;;5032090;28;20032;-79
2024/03/23 05:19:57;;;;;;;5.90;3.42;;;13.50;99.90;;;;;;5031955;28;20033;-78
2024/03/23 05:22:22;;;;;;;8.15;3.17;;;13.50;99.90;;;;;;5031673;28;20117;-79
2024/03/23 05:24:48;;;;;;;6.32;3.15;;;13.50;99.90;;;;;;5014006;28;20458;-79
2024/03/23 05:27:13;;;;;;;4.35;2.65;;;13.50;99.90;;;;;;5009550;28;20029;-79
2024/03/23 05:29:39;;;;;;;5.40;3.20;;;13.50;99.90;;;;;;5013092;28;20030;-79
2024/03/23 05:32:05;;;;;;;5.60;2.90;;;13.40;99.90;;;;;;5013952;28;20021;-79
2024/03/23 05:34:30;;;;;;;9.35;3.05;;;13.50;99.90;;;;;;5032061;28;20091;-79
2024/03/23 05:36:56;;;;;;;6.50;3.28;;;13.50;99.90;;;;;;5031734;28;20112;-79
2024/03/23 05:39:22;;;;;;;5.07;3.03;;;13.50;99.90;;;;;;5031072;28;20032;-78
2024/03/23 05:41:48;;;;;;;5.05;2.90;;;13.50;99.90;;;;;;5013835;28;20029;-79
2024/03/23 05:44:14;;;;;;;5.45;3.20;;;13.50;99.90;;;;;;5030410;28;20092;-79
2024/03/23 05:46:41;;;;;;;6.80;3.15;;;13.50;99.90;;;;;;5031199;28;20029;-80
2024/03/23 05:49:06;;;;;;;6.90;2.90;;;13.50;99.90;;;;;;5028100;28;20022;-79
2024/03/23 05:51:32;;;;;;;5.10;3.15;;;13.50;99.90;;;;;;5010297;28;20032;-79
2024/03/23 05:53:57;;;;;;;7.38;3.22;;;13.50;99.90;;;;;;5030906;28;20509;-79
2024/03/23 05:56:23;;;;;;;9.18;3.38;;;13.50;99.90;;;;;;5013884;28;20083;-79
2024/03/23 05:58:48;;;;;;;4.55;2.90;;;13.40;99.90;;;;;;5013452;28;20160;-80
2024/03/23 06:01:14;;;;;;;6.65;3.40;;;13.40;99.90;;;;;;5030615;28;20030;-79
2024/03/23 06:03:40;;;;;;;6.18;3.40;;;13.50;99.90;;;;;;5010749;28;20025;-78
2024/03/23 06:06:10;;;;;;;6.82;2.85;;;13.40;99.90;;;;;;5029459;28;20179;-79
2024/03/23 06:08:35;;;;;;;;;;;13.40;99.90;;;;;;5013305;28;20018;-78
2024/03/23 06:11:01;;;;;;;5.45;3.17;;;13.40;99.90;;;;;;5030779;28;19927;-79
2024/03/23 06:13:29;;;;;;;8.88;3.45;;;13.40;99.90;;;;;;5012649;28;20387;-79
2024/03/23 06:15:55;;;;;;;8.38;3.30;;;13.40;99.90;;;;;;5028858;28;20028;-79
2024/03/23 06:18:21;;;;;;;6.05;3.10;;;13.40;99.90;;;;;;5030935;28;20022;-79
2024/03/23 06:20:46;;;;;;;7.53;3.15;;;13.40;99.90;;;;;;5030399;28;20021;-81
2024/03/23 06:23:12;;;;;;;8.00;3.50;;;13.30;99.90;;;;;;5012859;28;20029;-79
2024/03/23 06:25:38;;;;;;;6.25;2.90;;;13.40;99.90;;;;;;5030810;28;20494;-79
2024/03/23 06:28:04;;;;;;;4.40;2.78;;;13.40;99.90;;;;;;5012881;28;20018;-79
2024/03/23 06:30:31;;;;;;;4.95;3.13;;;13.30;99.90;;;;;;5013233;28;20022;-78
2024/03/23 06:32:57;;;;;;;5.78;3.00;;;13.30;99.90;;;;;;5011272;28;20072;-79
2024/03/23 06:35:22;;;;;;;7.90;3.30;;;13.40;99.90;;;;;;5013158;28;20023;-79
2024/03/23 06:37:48;;;;;;;4.30;2.88;;;13.40;99.90;;;;;;5010693;28;20095;-82
2024/03/23 06:40:14;;;;;;;5.05;2.58;;;13.40;99.90;;;;;;5012399;28;20025;-79
2024/03/23 06:42:39;;;;;;;6.70;2.85;;;13.40;99.90;;;;;;5005454;28;20037;-79
2024/03/23 06:45:06;;;;;;;5.65;2.90;;;13.40;99.90;;;;;;5030517;28;20021;-78
2024/03/23 06:47:31;;;;;;;4.22;2.50;;;13.40;99.90;;;;;;5013362;28;20021;-80
2024/03/23 06:49:59;;;;;;;4.90;2.67;;;13.40;99.90;;;;;;5030348;28;20382;-78
2024/03/23 06:52:24;;;;;;;5.65;2.63;;;13.50;99.90;;;;;;5030409;28;20026;-79
2024/03/23 06:54:50;;;;;;;3.00;2.30;;;13.40;99.90;;;;;;5012560;28;20032;-80
2024/03/23 06:57:15;;;;;;;5.90;2.47;;;13.40;99.90;;;;;;5005472;28;20083;-79
2024/03/23 06:59:41;;;;;;;2.63;1.98;;;13.40;99.90;;;;;;5030297;28;20408;-79
2024/03/23 07:02:10;;;;;;;3.90;2.00;;;13.40;99.90;;;;;;5012472;28;20140;-78
2024/03/23 07:04:36;;;;;;;4.45;1.63;;;13.40;99.90;;;;;;5030232;28;20026;-80
2024/03/23 07:07:02;;;;;;;5.10;2.38;;;13.40;99.90;;;;;;5012125;28;20021;-79
2024/03/23 07:09:30;;;;;;;2.50;2.13;;;13.40;99.90;;;;;;5029910;28;20052;-79
2024/03/23 07:11:57;;;;;;;2.60;1.70;;;13.50;99.90;;;;;;5011151;28;20017;-78
2024/03/23 07:14:23;;;;;;;3.08;1.70;;;13.40;99.90;;;;;;5009642;28;20392;-79
2024/03/23 07:16:49;;;;;;;3.22;1.80;;;13.50;99.90;;;;;;5029957;28;20394;-79
2024/03/23 07:19:16;;;;;;;2.00;1.70;;;13.40;99.90;;;;;;5029492;28;20080;-80
2024/03/23 07:21:42;;;;;;;3.67;1.70;;;13.40;99.90;;;;;;5008778;28;20107;-79
2024/03/23 07:24:08;;;;;;;2.55;1.83;;;13.40;99.90;;;;;;5011679;28;20026;-79
2024/03/23 07:26:33;;;;;;;2.60;1.42;;;13.40;99.90;;;;;;5028763;28;20029;-82
2024/03/23 07:28:59;;;;;;;2.10;1.70;;;13.40;99.90;;;;;;5010832;28;20079;-80
2024/03/23 07:31:25;;;;;;;2.78;1.80;;;13.40;99.90;;;;;;5029731;28;20052;-79
2024/03/23 07:33:50;;;;;;;1.98;1.63;;;13.40;99.90;;;;;;5029184;28;20022;-79
2024/03/23 07:36:16;;;;;;;1.67;1.30;;;13.40;99.90;;;;;;5029570;28;20040;-80
2024/03/23 07:38:44;;;;;;;3.47;1.75;;;13.40;99.90;;;;;;5029532;28;20018;-80
2024/03/23 07:41:11;;;;;;;3.15;1.67;;;13.40;99.90;;;;;;5011626;28;20024;-80
2024/03/23 07:43:38;;;;;;;2.90;1.80;;;13.40;99.90;;;;;;5029573;28;20107;-80
2024/03/23 07:46:04;;;;;;;2.92;1.83;;;13.40;99.90;;;;;;5011458;28;20534;-79
2024/03/23 07:48:30;;;;;;;2.55;1.80;;;13.40;99.90;;;;;;5029357;28;20021;-79
2024/03/23 07:51:01;;;;;;;2.58;1.80;;;13.40;99.90;;;;;;5029354;28;20510;-80
2024/03/23 07:53:28;;;;;;;2.72;1.60;;;13.40;99.90;;;;;;5029452;28;20021;-78
2024/03/23 07:56:05;;;;;;;5.90;2.05;;;13.40;99.90;;;;;;5029304;28;20029;-81
2024/03/23 07:58:30;;;;;;;2.53;1.67;;;13.50;99.90;;;;;;5028905;28;20021;-80
2024/03/23 08:01:03;;;;;;;2.85;1.80;;;13.50;99.90;;;;;;5029278;28;20387;-80
2024/03/23 08:03:28;;;;;;;2.95;2.05;;;13.50;99.90;;;;;;5026175;28;20020;-81
2024/03/23 08:05:54;;;;;;;2.63;1.63;;;13.40;99.90;;;;;;5011450;28;20029;-80
2024/03/23 08:08:19;;;;;;;2.05;1.50;;;13.40;99.90;;;;;;5007318;28;20099;-79
2024/03/23 08:10:52;;;;;;;3.25;1.45;;;13.40;99.90;;;;;;5010465;28;20049;-80
2024/03/23 08:13:18;;;;;;;2.80;1.20;;;13.40;99.90;;;;;;5026839;28;20049;-82
2024/03/23 08:15:44;;;;;;;3.20;1.30;;;13.40;99.90;;;;;;5029153;28;20071;-80
2024/03/23 08:18:11;;;;;;;1.98;1.35;;;13.40;99.90;;;;;;5029086;28;20014;-80
2024/03/23 08:20:37;;;;;;;2.00;1.35;;;13.40;99.90;;;;;;5011329;28;20507;-80
2024/03/23 08:23:03;;;;;;;1.08;1.00;;;13.40;99.90;;;;;;5008314;28;20030;-79
2024/03/23 08:25:31;;;;;;;0.85;0.80;;;13.50;99.90;;;;;;5010978;28;20751;-80
2024/03/23 08:27:57;;;;;;;1.38;1.17;;;13.50;99.90;;;;;;5010988;28;20075;-80
2024/03/23 08:30:22;;;;;;;1.98;1.25;;;13.50;99.90;;;;;;5010470;28;20030;-80
2024/03/23 08:32:48;;;;;;;1.38;0.95;;;13.50;99.90;;;;;;5028901;28;20025;-81
2024/03/23 08:35:14;;;;;;;1.38;0.80;;;13.50;99.90;;;;;;5011451;28;20437;-80
2024/03/23 08:37:39;;;;;;;1.15;0.98;;;13.50;99.90;;;;;;5013231;28;20674;-80
2024/03/23 08:40:06;;;;;;;1.17;0.98;;;13.50;99.90;;;;;;5012142;28;20049;-80
2024/03/23 08:42:32;;;;;;;0.93;0.85;;;13.50;99.90;;;;;;5014897;28;20022;-80
2024/03/23 08:44:57;;;;;;;1.33;0.70;;;13.50;99.90;;;;;;5014721;28;20380;-80
2024/03/23 08:47:23;;;;;;;0.60;0.60;;;13.50;99.90;;;;;;5032197;28;20103;-80
2024/03/23 08:49:49;;;;;;;0.75;0.75;;;13.50;99.90;;;;;;5032771;28;20499;-81
2024/03/23 08:52:14;;;;;;;0.70;0.70;;;13.50;99.90;;;;;;5032516;28;20045;-80
2024/03/23 08:54:40;;;;;;;0.60;0.60;;;13.50;99.90;;;;;;5014507;28;20479;-80
2024/03/23 08:57:07;;;;;;;0.63;0.63;;;13.50;99.90;;;;;;5032580;28;20033;-81
2024/03/23 08:59:32;;;;;;;0.68;0.60;;;13.50;99.90;;;;;;5014149;28;20029;-82
2024/03/23 09:01:58;;;;;;;0.45;0.45;;;13.50;99.90;;;;;;5030298;28;20399;-81
2024/03/23 09:04:23;;;;;;;0.60;0.60;;;13.40;99.90;;;;;;5010587;28;20072;-79
2024/03/23 09:06:49;;;;;;;0.50;0.50;;;13.40;99.90;;;;;;5032217;28;20033;-80
2024/03/23 09:09:15;;;;;;;0.63;0.63;;;13.40;99.90;;;;;;5009906;28;20026;-80
2024/03/23 09:11:41;;;;;;;0.63;0.63;;;13.40;99.90;;;;;;5032066;28;20017;-80
2024/03/23 09:14:06;;;;;;;2.38;0.70;;;13.40;99.90;;;;;;5031944;28;20027;-80
2024/03/23 09:16:32;;;;;;;0.57;0.57;;;13.30;99.90;;;;;;5014424;28;20057;-79
2024/03/23 09:18:57;;;;;;;0.80;0.50;;;13.40;99.90;;;;;;5031739;28;21257;-80
2024/03/23 09:21:23;;;;;;;1.23;0.60;;;13.40;99.90;;;;;;5014331;28;20484;-81
2024/03/23 09:23:49;;;;;;;0.50;0.50;;;13.30;99.90;;;;;;5013691;28;20026;-80
2024/03/23 09:26:14;;;;;;;0.50;0.50;;;13.30;99.90;;;;;;5013809;28;20121;-80
2024/03/23 09:28:40;;;;;;;0.60;0.50;;;13.30;99.90;;;;;;5031603;28;20096;-80
2024/03/23 09:31:07;;;;;;;1.05;0.70;;;13.30;99.90;;;;;;5029857;28;20059;-80
2024/03/23 09:33:34;;;;;;;2.53;0.80;;;13.40;99.90;;;;;;5010199;28;20089;-81
2024/03/23 09:36:04;;;;;;;0.95;0.80;;;13.50;99.90;;;;;;5013905;28;20030;-79
2024/03/23 09:38:29;;;;;;;0.70;0.70;;;13.50;99.90;;;;;;5031458;28;20032;-80
2024/03/23 09:40:55;;;;;;;1.08;0.80;;;13.60;99.90;;;;;;5009750;28;20941;-80
2024/03/23 09:43:20;;;;;;;0.75;0.60;;;13.70;99.90;;;;;;5011176;28;20079;-80
2024/03/23 09:45:46;;;;;;;1.48;0.65;;;13.80;99.90;;;;;;5031607;28;20025;-82
2024/03/23 09:48:12;;;;;;;0.88;0.77;;;13.80;99.90;;;;;;5030763;28;20067;-79
2024/03/23 09:50:43;;;;;;;1.23;0.85;;;13.90;99.90;;;;;;5028014;28;20020;-80
2024/03/23 09:53:11;;;;;;;1.00;1.00;;;14.00;99.90;;;;;;5029365;28;20485;-79
2024/03/23 09:55:37;;;;;;;3.10;1.00;;;14.00;99.90;;;;;;5013054;28;20501;-80
2024/03/23 09:58:04;;;;;;;1.73;0.70;;;14.00;99.90;;;;;;5013527;28;20442;-80
2024/03/23 10:00:36;;;;;;;1.98;0.82;;;14.00;99.90;;;;;;5030655;28;20036;-80
2024/03/23 10:03:02;;;;;;;5.38;1.17;;;13.90;99.90;;;;;;5013123;28;20033;-80
2024/03/23 10:05:29;;;;;;;0.90;0.90;;;14.00;99.90;;;;;;5030582;28;20029;-80
2024/03/23 10:07:54;;;;;;;0.90;0.80;;;14.10;99.90;;;;;;5013261;28;20475;-80
2024/03/23 10:10:21;;;;;;;1.40;0.90;;;14.10;99.90;;;;;;5012771;28;20029;-79
2024/03/23 10:12:53;;;;;;;1.20;0.98;;;14.40;99.90;;;;;;5012845;28;20075;-81
2024/03/23 10:15:23;;;;;;;3.85;1.52;;;14.90;99.90;;;;;;5030673;28;20111;-80
2024/03/23 10:17:49;;;;;;;1.35;1.08;;;15.30;99.90;;;;;;5030126;28;20545;-80
2024/03/23 10:20:22;;;;;;;1.90;1.10;;;15.20;99.90;;;;;;5030621;28;20132;-81
2024/03/23 10:22:56;;;;;;;1.77;1.08;;;15.00;99.90;;;;;;5010840;28;20025;-80
2024/03/23 10:25:24;;;;;;;1.88;0.98;;;14.70;99.90;;;;;;5026589;28;20518;-81
2024/03/23 10:28:00;;;;;;;5.00;1.35;;;14.50;99.90;;;;;;5029990;28;20021;-81
2024/03/23 10:30:27;;;;;;;10.73;1.30;;;14.20;99.90;;;;;;5011530;28;20483;-81
2024/03/23 10:33:10;;;;;;;2.45;1.23;;;14.00;99.90;;;;;;5027822;28;20140;-81
2024/03/23 10:35:37;;;;;;;2.05;1.60;;;13.90;99.90;;;;;;5029792;28;20033;-81
2024/03/23 10:38:06;;;;;;;3.00;1.48;;;13.80;99.90;;;;;;5007589;28;20061;-80
2024/03/23 10:40:33;;;;;;;3.33;1.58;;;13.80;99.90;;;;;;5012007;28;20033;-80
2024/03/23 10:43:00;;;;;;;1.80;1.40;;;13.80;99.90;;;;;;5012161;28;20639;-82
2024/03/23 10:45:25;;;;;;;5.00;1.55;;;13.80;99.90;;;;;;5012579;28;20029;-81
2024/03/23 10:47:51;;;;;;;5.53;1.70;;;13.80;99.90;;;;;;5029261;28;20045;-82
2024/03/23 10:50:17;;;;;;;2.15;1.40;;;13.80;99.90;;;;;;5025733;28;20026;-81
2024/03/23 10:52:47;;;;;;;5.53;1.63;;;13.70;99.90;;;;;;5029927;28;20029;-81
2024/03/23 10:55:15;;;;;;;3.10;2.05;;;13.70;99.90;;;;;;5010994;28;20013;-80
2024/03/23 10:57:48;;;;;;;3.25;1.75;;;13.60;99.90;;;;;;5028939;28;20040;-80
2024/03/23 11:00:14;;;;;;;5.28;1.90;;;13.60;99.90;;;;;;5005844;28;20041;-80
2024/03/23 11:02:40;;;;;;;6.13;2.30;;;13.50;99.90;;;;;;5030169;28;20139;-81
2024/03/23 11:05:24;;;;;;;5.60;2.00;;;13.50;99.90;;;;;;5029446;28;20101;-81
2024/03/23 11:07:50;;;;;;;3.63;1.92;;;13.50;99.90;;;;;;5012188;28;20017;-81
2024/03/23 11:10:30;;;;;;;3.78;1.83;;;13.60;99.90;;;;;;5029447;28;20021;-81
2024/03/23 11:13:17;;;;;;;3.50;2.03;;;13.60;99.90;;;;;;5027664;28;20026;-80
2024/03/23 11:15:43;;;;;;;5.03;2.05;;;13.70;99.90;;;;;;5027875;28;21546;-80
2024/03/23 11:18:08;;;;;;;5.35;1.83;;;13.70;99.90;;;;;;5029601;28;20030;-82
2024/03/23 11:20:35;;;;;;;3.38;2.13;;;13.70;99.90;;;;;;5009562;28;20025;-81
2024/03/23 11:23:01;;;;;;;7.70;2.22;;;13.60;99.90;;;;;;5012135;28;20117;-81
2024/03/23 11:25:27;;;;;;;4.53;2.25;;;13.60;99.90;;;;;;5011829;28;20112;-80
2024/03/23 11:27:55;;;;;;;4.07;2.33;;;13.60;99.90;;;;;;5028007;28;20113;-81
2024/03/23 11:30:25;;;;;;;5.72;2.10;;;13.60;99.90;;;;;;5029417;28;20049;-81
2024/03/23 11:32:53;;;;;;;6.47;2.47;;;13.80;99.90;;;;;;5027725;28;20013;-81
2024/03/23 11:35:29;;;;;;;3.97;2.13;;;14.00;99.90;;;;;;5029955;28;20025;-80
2024/03/23 11:38:20;;;;;;;6.07;2.25;;;14.40;99.90;;;;;;5011114;28;20450;-81
2024/03/23 11:40:47;;;;;;;2.75;1.55;;;14.80;99.90;;;;;;5010810;28;20083;-80
2024/03/23 11:43:21;;;;;;;4.38;1.70;;;15.10;99.90;;;;;;5025345;28;20030;-80
2024/03/23 11:45:55;;;;;;;2.45;1.58;;;15.30;99.90;;;;;;5011820;28;20048;-81
2024/03/23 11:48:22;;;;;;;4.75;2.28;;;15.30;99.90;;;;;;5009333;28;20638;-81
2024/03/23 11:50:49;;;;;;;5.43;1.85;;;15.40;99.90;;;;;;5011669;28;20112;-82
2024/03/23 11:53:20;;;;;;;7.75;1.27;;;15.30;99.90;;;;;;5022920;28;20045;-81
2024/03/23 11:55:48;;;;;;;3.75;1.75;;;15.20;99.90;;;;;;5020600;28;20026;-81
2024/03/23 11:58:15;;;;;;;3.53;1.45;;;14.90;99.90;;;;;;5008623;28;20025;-81
2024/03/23 12:00:42;;;;;;;5.50;1.83;;;14.70;99.90;;;;;;5026632;28;20053;-80
2024/03/23 12:03:07;;;;;;;3.30;2.10;;;14.50;99.90;;;;;;4999903;28;20018;-79
2024/03/23 12:05:34;;;;;;;7.32;1.70;;;14.40;99.90;;;;;;5010716;28;20030;-80
2024/03/23 12:08:38;;;;;;;2.47;1.33;;;14.50;99.90;;;;;;5022262;28;20040;-81
2024/03/23 12:11:06;;;;;;;7.93;1.70;;;14.70;99.90;;;;;;5010507;28;20033;-81
2024/03/23 12:13:32;;;;;;;3.22;1.27;;;14.90;99.90;;;;;;5032989;28;20021;-81
2024/03/23 12:16:21;;;;;;;11.18;1.58;;;15.00;99.90;;;;;;5012398;28;20112;-81
2024/03/23 12:18:54;;;;;;;4.60;1.65;;;15.10;99.90;;;;;;5011870;28;20499;-82
2024/03/23 12:21:22;;;;;;;6.53;1.17;;;15.00;99.90;;;;;;5008091;28;20119;-82
2024/03/23 12:23:50;;;;;;;2.67;1.20;;;15.00;99.90;;;;;;5012171;28;20411;-81
2024/03/23 12:26:17;;;;;;;4.47;1.20;;;15.00;99.90;;;;;;5011413;28;20107;-81
2024/03/23 12:28:42;;;;;;;7.03;1.20;;;15.00;99.90;;;;;;5032797;28;20105;-80
2024/03/23 12:31:08;;;;;;;2.95;1.35;;;14.80;99.90;;;;;;5031319;28;20096;-81
2024/03/23 12:33:34;;;;;;;8.30;1.63;;;14.80;99.90;;;;;;5027379;28;20033;-80
2024/03/23 12:35:59;;;;;;;2.28;0.93;;;14.70;99.90;;;;;;5009168;28;20398;-80
2024/03/23 12:38:25;;;;;;;5.32;1.38;;;14.50;99.90;;;;;;5027908;28;20040;-80
2024/03/23 12:40:51;;;;;;;4.78;1.40;;;14.30;99.90;;;;;;5010667;28;20019;-80
2024/03/23 12:43:17;;;;;;;6.68;1.80;;;14.20;99.90;;;;;;5021076;28;20030;-81
2024/03/23 12:45:50;;;;;;;3.13;1.00;;;14.20;99.90;;;;;;5014331;28;20055;-81